sensor_id;sensor_type;location;lat;lon;timestamp;P1;durP1;ratioP1;P2;durP2;ratioP2
40433;SDS011;26146;51.114;5.654;2023-05-19T00:02:00;19.97;;;8.10;;
40433;SDS011;26146;51.114;5.654;2023-05-19T00:06:05;14.07;;;7.13;;
40433;SDS011;26146;51.114;5.654;2023-05-19T00:10:10;16.80;;;7.10;;
40433;SDS011;26146;51.114;5.654;2023-05-19T00:14:11;17.03;;;7.83;;
40433;SDS011;26146;51.114;5.654;2023-05-19T00:18:13;16.40;;;7.47;;
40433;SDS011;26146;51.114;5.654;2023-05-19T00:22:15;17.43;;;7.97;;
40433;SDS011;26146;51.114;5.654;2023-05-19T00:26:16;15.70;;;7.77;;
40433;SDS011;26146;51.114;5.654;2023-05-19T00:30:18;15.43;;;7.33;;
40433;SDS011;26146;51.114;5.654;2023-05-19T00:34:19;17.03;;;8.50;;
40433;SDS011;26146;51.114;5.654;2023-05-19T00:38:20;15.87;;;8.00;;
40433;SDS011;26146;51.114;5.654;2023-05-19T00:42:21;17.17;;;8.60;;
40433;SDS011;26146;51.114;5.654;2023-05-19T00:46:22;17.07;;;8.17;;
40433;SDS011;26146;51.114;5.654;2023-05-19T00:50:24;15.60;;;7.80;;
40433;SDS011;26146;51.114;5.654;2023-05-19T00:54:27;20.50;;;8.07;;
40433;SDS011;26146;51.114;5.654;2023-05-19T00:58:29;18.57;;;7.97;;
40433;SDS011;26146;51.114;5.654;2023-05-19T01:02:31;16.73;;;8.37;;
40433;SDS011;26146;51.114;5.654;2023-05-19T01:06:32;14.57;;;7.80;;
40433;SDS011;26146;51.114;5.654;2023-05-19T01:10:34;16.77;;;8.63;;
40433;SDS011;26146;51.114;5.654;2023-05-19T01:14:35;17.13;;;8.30;;
40433;SDS011;26146;51.114;5.654;2023-05-19T01:31:58;26.20;;;10.50;;
40433;SDS011;26146;51.114;5.654;2023-05-19T01:36:01;23.33;;;10.10;;
40433;SDS011;26146;51.114;5.654;2023-05-19T01:40:03;18.47;;;8.50;;
40433;SDS011;26146;51.114;5.654;2023-05-19T01:44:07;18.13;;;8.77;;
40433;SDS011;26146;51.114;5.654;2023-05-19T01:48:09;18.10;;;8.10;;
40433;SDS011;26146;51.114;5.654;2023-05-19T01:52:12;16.93;;;8.57;;
40433;SDS011;26146;51.114;5.654;2023-05-19T01:56:14;16.23;;;8.23;;
40433;SDS011;26146;51.114;5.654;2023-05-19T02:04:42;18.17;;;7.80;;
40433;SDS011;26146;51.114;5.654;2023-05-19T02:17:06;17.13;;;7.70;;
40433;SDS011;26146;51.114;5.654;2023-05-19T02:21:08;19.47;;;7.70;;
40433;SDS011;26146;51.114;5.654;2023-05-19T02:25:12;16.37;;;7.47;;
40433;SDS011;26146;51.114;5.654;2023-05-19T02:29:13;16.47;;;7.40;;
40433;SDS011;26146;51.114;5.654;2023-05-19T02:33:15;18.33;;;7.67;;
40433;SDS011;26146;51.114;5.654;2023-05-19T02:37:18;15.77;;;7.50;;
40433;SDS011;26146;51.114;5.654;2023-05-19T02:41:23;15.30;;;7.10;;
40433;SDS011;26146;51.114;5.654;2023-05-19T02:45:24;15.77;;;7.30;;
40433;SDS011;26146;51.114;5.654;2023-05-19T02:49:27;16.17;;;7.30;;
40433;SDS011;26146;51.114;5.654;2023-05-19T02:53:35;15.37;;;7.30;;
40433;SDS011;26146;51.114;5.654;2023-05-19T02:57:36;18.20;;;6.93;;
40433;SDS011;26146;51.114;5.654;2023-05-19T03:01:37;14.50;;;7.30;;
40433;SDS011;26146;51.114;5.654;2023-05-19T03:05:39;16.73;;;7.67;;
40433;SDS011;26146;51.114;5.654;2023-05-19T03:09:41;16.17;;;8.23;;
40433;SDS011;26146;51.114;5.654;2023-05-19T03:13:42;16.73;;;8.60;;
40433;SDS011;26146;51.114;5.654;2023-05-19T03:17:43;17.37;;;7.83;;
40433;SDS011;26146;51.114;5.654;2023-05-19T03:21:44;18.67;;;7.47;;
40433;SDS011;26146;51.114;5.654;2023-05-19T03:25:46;18.03;;;8.07;;
40433;SDS011;26146;51.114;5.654;2023-05-19T03:29:47;16.67;;;7.60;;
40433;SDS011;26146;51.114;5.654;2023-05-19T03:33:48;17.60;;;7.63;;
40433;SDS011;26146;51.114;5.654;2023-05-19T03:37:49;17.90;;;7.57;;
40433;SDS011;26146;51.114;5.654;2023-05-19T03:41:50;16.20;;;7.13;;
40433;SDS011;26146;51.114;5.654;2023-05-19T03:45:52;18.77;;;7.27;;
40433;SDS011;26146;51.114;5.654;2023-05-19T03:49:53;15.73;;;7.03;;
40433;SDS011;26146;51.114;5.654;2023-05-19T03:53:54;16.17;;;6.73;;
40433;SDS011;26146;51.114;5.654;2023-05-19T03:57:55;16.00;;;6.47;;
40433;SDS011;26146;51.114;5.654;2023-05-19T04:01:56;12.20;;;6.23;;
40433;SDS011;26146;51.114;5.654;2023-05-19T04:05:57;16.90;;;6.77;;
40433;SDS011;26146;51.114;5.654;2023-05-19T04:09:58;15.23;;;6.43;;
40433;SDS011;26146;51.114;5.654;2023-05-19T04:13:59;14.67;;;6.50;;
40433;SDS011;26146;51.114;5.654;2023-05-19T04:18:01;17.10;;;6.87;;
40433;SDS011;26146;51.114;5.654;2023-05-19T04:22:02;14.40;;;6.23;;
40433;SDS011;26146;51.114;5.654;2023-05-19T04:26:03;16.13;;;6.60;;
40433;SDS011;26146;51.114;5.654;2023-05-19T04:30:06;15.13;;;6.23;;
40433;SDS011;26146;51.114;5.654;2023-05-19T04:34:07;13.77;;;6.60;;
40433;SDS011;26146;51.114;5.654;2023-05-19T04:38:09;17.50;;;6.70;;
40433;SDS011;26146;51.114;5.654;2023-05-19T04:42:11;14.97;;;6.00;;
40433;SDS011;26146;51.114;5.654;2023-05-19T04:46:12;12.90;;;5.87;;
40433;SDS011;26146;51.114;5.654;2023-05-19T04:50:14;12.30;;;6.00;;
40433;SDS011;26146;51.114;5.654;2023-05-19T04:54:16;15.27;;;6.17;;
40433;SDS011;26146;51.114;5.654;2023-05-19T04:58:17;14.33;;;5.80;;
40433;SDS011;26146;51.114;5.654;2023-05-19T05:02:19;13.57;;;5.53;;
40433;SDS011;26146;51.114;5.654;2023-05-19T05:06:20;11.87;;;5.13;;
40433;SDS011;26146;51.114;5.654;2023-05-19T05:10:21;14.93;;;5.30;;
40433;SDS011;26146;51.114;5.654;2023-05-19T05:14:23;12.03;;;5.27;;
40433;SDS011;26146;51.114;5.654;2023-05-19T05:18:24;11.67;;;5.17;;
40433;SDS011;26146;51.114;5.654;2023-05-19T05:22:26;14.37;;;5.17;;
40433;SDS011;26146;51.114;5.654;2023-05-19T05:26:28;12.80;;;4.73;;
40433;SDS011;26146;51.114;5.654;2023-05-19T05:30:32;13.77;;;5.50;;
40433;SDS011;26146;51.114;5.654;2023-05-19T05:34:34;13.07;;;5.37;;
40433;SDS011;26146;51.114;5.654;2023-05-19T05:38:37;15.43;;;5.00;;
40433;SDS011;26146;51.114;5.654;2023-05-19T05:42:38;12.30;;;5.50;;
40433;SDS011;26146;51.114;5.654;2023-05-19T05:46:39;15.00;;;5.57;;
40433;SDS011;26146;51.114;5.654;2023-05-19T05:50:42;13.27;;;5.20;;
40433;SDS011;26146;51.114;5.654;2023-05-19T05:54:44;12.17;;;5.00;;
40433;SDS011;26146;51.114;5.654;2023-05-19T05:58:45;13.30;;;5.30;;
40433;SDS011;26146;51.114;5.654;2023-05-19T06:02:47;14.93;;;5.57;;
40433;SDS011;26146;51.114;5.654;2023-05-19T06:06:49;13.50;;;5.37;;
40433;SDS011;26146;51.114;5.654;2023-05-19T06:10:51;14.97;;;5.90;;
40433;SDS011;26146;51.114;5.654;2023-05-19T06:14:52;14.07;;;5.70;;
40433;SDS011;26146;51.114;5.654;2023-05-19T06:18:54;13.23;;;5.70;;
40433;SDS011;26146;51.114;5.654;2023-05-19T06:22:55;13.13;;;5.67;;
40433;SDS011;26146;51.114;5.654;2023-05-19T06:26:56;12.80;;;5.77;;
40433;SDS011;26146;51.114;5.654;2023-05-19T06:30:57;14.33;;;5.57;;
40433;SDS011;26146;51.114;5.654;2023-05-19T06:34:59;12.50;;;5.40;;
40433;SDS011;26146;51.114;5.654;2023-05-19T06:39:00;12.05;;;5.22;;
40433;SDS011;26146;51.114;5.654;2023-05-19T06:43:01;12.02;;;5.15;;
40433;SDS011;26146;51.114;5.654;2023-05-19T06:47:04;14.18;;;4.95;;
40433;SDS011;26146;51.114;5.654;2023-05-19T06:51:05;14.15;;;4.78;;
40433;SDS011;26146;51.114;5.654;2023-05-19T06:55:06;10.85;;;4.65;;
40433;SDS011;26146;51.114;5.654;2023-05-19T06:59:07;10.95;;;4.90;;
40433;SDS011;26146;51.114;5.654;2023-05-19T07:03:08;11.70;;;4.30;;
40433;SDS011;26146;51.114;5.654;2023-05-19T07:07:09;12.23;;;4.68;;
40433;SDS011;26146;51.114;5.654;2023-05-19T07:11:10;12.00;;;4.45;;
40433;SDS011;26146;51.114;5.654;2023-05-19T07:15:11;14.50;;;4.97;;
40433;SDS011;26146;51.114;5.654;2023-05-19T07:19:12;12.88;;;4.45;;
40433;SDS011;26146;51.114;5.654;2023-05-19T07:23:13;14.98;;;4.80;;
40433;SDS011;26146;51.114;5.654;2023-05-19T07:27:14;9.75;;;4.10;;
40433;SDS011;26146;51.114;5.654;2023-05-19T07:31:15;10.88;;;3.90;;
40433;SDS011;26146;51.114;5.654;2023-05-19T07:35:17;11.23;;;4.13;;
40433;SDS011;26146;51.114;5.654;2023-05-19T07:39:18;10.75;;;3.95;;
40433;SDS011;26146;51.114;5.654;2023-05-19T07:43:19;11.23;;;4.28;;
40433;SDS011;26146;51.114;5.654;2023-05-19T07:47:20;11.93;;;4.15;;
40433;SDS011;26146;51.114;5.654;2023-05-19T07:51:21;10.85;;;3.78;;
40433;SDS011;26146;51.114;5.654;2023-05-19T07:55:22;10.52;;;3.90;;
40433;SDS011;26146;51.114;5.654;2023-05-19T07:59:23;12.50;;;3.97;;
40433;SDS011;26146;51.114;5.654;2023-05-19T08:03:24;10.93;;;3.53;;
40433;SDS011;26146;51.114;5.654;2023-05-19T08:07:26;12.05;;;3.50;;
40433;SDS011;26146;51.114;5.654;2023-05-19T08:11:27;11.68;;;3.90;;
40433;SDS011;26146;51.114;5.654;2023-05-19T08:15:28;10.35;;;3.17;;
40433;SDS011;26146;51.114;5.654;2023-05-19T08:19:30;9.93;;;3.40;;
40433;SDS011;26146;51.114;5.654;2023-05-19T08:23:31;10.60;;;3.22;;
40433;SDS011;26146;51.114;5.654;2023-05-19T08:27:34;8.77;;;2.95;;
40433;SDS011;26146;51.114;5.654;2023-05-19T08:31:35;11.30;;;3.13;;
40433;SDS011;26146;51.114;5.654;2023-05-19T08:35:36;8.80;;;2.42;;
40433;SDS011;26146;51.114;5.654;2023-05-19T08:39:37;9.25;;;2.67;;
40433;SDS011;26146;51.114;5.654;2023-05-19T08:43:39;10.63;;;2.72;;
40433;SDS011;26146;51.114;5.654;2023-05-19T08:47:40;7.88;;;1.98;;
40433;SDS011;26146;51.114;5.654;2023-05-19T08:56:16;12.07;;;2.35;;
40433;SDS011;26146;51.114;5.654;2023-05-19T09:00:21;11.60;;;2.42;;
40433;SDS011;26146;51.114;5.654;2023-05-19T09:04:22;9.85;;;2.53;;
40433;SDS011;26146;51.114;5.654;2023-05-19T09:08:27;9.05;;;2.30;;
40433;SDS011;26146;51.114;5.654;2023-05-19T09:12:28;9.77;;;2.17;;
40433;SDS011;26146;51.114;5.654;2023-05-19T09:16:29;9.15;;;2.17;;
40433;SDS011;26146;51.114;5.654;2023-05-19T09:20:31;8.45;;;1.90;;
40433;SDS011;26146;51.114;5.654;2023-05-19T09:24:36;8.30;;;1.88;;
40433;SDS011;26146;51.114;5.654;2023-05-19T09:28:39;8.48;;;1.90;;
40433;SDS011;26146;51.114;5.654;2023-05-19T09:32:40;9.95;;;1.65;;
40433;SDS011;26146;51.114;5.654;2023-05-19T09:36:42;10.55;;;1.80;;
40433;SDS011;26146;51.114;5.654;2023-05-19T09:40:43;7.85;;;1.90;;
40433;SDS011;26146;51.114;5.654;2023-05-19T09:44:44;8.75;;;2.10;;
40433;SDS011;26146;51.114;5.654;2023-05-19T09:48:47;9.38;;;2.00;;
40433;SDS011;26146;51.114;5.654;2023-05-19T09:52:48;9.45;;;2.05;;
40433;SDS011;26146;51.114;5.654;2023-05-19T09:56:56;7.57;;;1.83;;
40433;SDS011;26146;51.114;5.654;2023-05-19T10:00:58;9.20;;;2.15;;
40433;SDS011;26146;51.114;5.654;2023-05-19T10:05:01;6.55;;;1.45;;
40433;SDS011;26146;51.114;5.654;2023-05-19T10:09:02;8.85;;;1.85;;
40433;SDS011;26146;51.114;5.654;2023-05-19T10:13:04;10.02;;;2.40;;
40433;SDS011;26146;51.114;5.654;2023-05-19T10:17:05;9.32;;;1.90;;
40433;SDS011;26146;51.114;5.654;2023-05-19T10:21:07;8.88;;;2.28;;
40433;SDS011;26146;51.114;5.654;2023-05-19T10:25:09;7.53;;;1.50;;
40433;SDS011;26146;51.114;5.654;2023-05-19T10:29:13;9.48;;;2.10;;
40433;SDS011;26146;51.114;5.654;2023-05-19T10:33:17;7.80;;;2.13;;
40433;SDS011;26146;51.114;5.654;2023-05-19T10:37:33;9.55;;;1.88;;
40433;SDS011;26146;51.114;5.654;2023-05-19T10:45:56;8.23;;;2.03;;
40433;SDS011;26146;51.114;5.654;2023-05-19T10:49:59;9.30;;;2.20;;
40433;SDS011;26146;51.114;5.654;2023-05-19T10:54:00;7.85;;;2.00;;
40433;SDS011;26146;51.114;5.654;2023-05-19T10:58:02;8.82;;;1.80;;
40433;SDS011;26146;51.114;5.654;2023-05-19T11:02:04;6.68;;;1.65;;
40433;SDS011;26146;51.114;5.654;2023-05-19T11:06:19;6.80;;;1.60;;
40433;SDS011;26146;51.114;5.654;2023-05-19T11:10:26;8.80;;;1.60;;
40433;SDS011;26146;51.114;5.654;2023-05-19T11:14:27;12.60;;;1.88;;
40433;SDS011;26146;51.114;5.654;2023-05-19T11:18:31;11.55;;;2.13;;
40433;SDS011;26146;51.114;5.654;2023-05-19T11:22:32;7.43;;;1.70;;
40433;SDS011;26146;51.114;5.654;2023-05-19T11:26:38;9.35;;;1.70;;
40433;SDS011;26146;51.114;5.654;2023-05-19T11:30:42;8.57;;;1.50;;
40433;SDS011;26146;51.114;5.654;2023-05-19T11:34:45;6.88;;;1.60;;
40433;SDS011;26146;51.114;5.654;2023-05-19T11:38:48;8.00;;;1.80;;
40433;SDS011;26146;51.114;5.654;2023-05-19T11:42:50;10.23;;;1.50;;
40433;SDS011;26146;51.114;5.654;2023-05-19T11:46:51;8.82;;;1.88;;
40433;SDS011;26146;51.114;5.654;2023-05-19T11:50:53;11.85;;;2.00;;
40433;SDS011;26146;51.114;5.654;2023-05-19T11:54:59;10.45;;;1.90;;
40433;SDS011;26146;51.114;5.654;2023-05-19T12:03:02;7.65;;;1.45;;
40433;SDS011;26146;51.114;5.654;2023-05-19T12:07:03;10.13;;;1.80;;
40433;SDS011;26146;51.114;5.654;2023-05-19T12:11:05;7.82;;;1.90;;
40433;SDS011;26146;51.114;5.654;2023-05-19T12:15:06;9.32;;;1.58;;
40433;SDS011;26146;51.114;5.654;2023-05-19T12:19:08;8.05;;;1.83;;
40433;SDS011;26146;51.114;5.654;2023-05-19T12:23:10;11.20;;;1.60;;
40433;SDS011;26146;51.114;5.654;2023-05-19T12:27:13;7.65;;;1.60;;
40433;SDS011;26146;51.114;5.654;2023-05-19T12:35:18;7.28;;;1.40;;
40433;SDS011;26146;51.114;5.654;2023-05-19T12:39:19;11.10;;;2.00;;
40433;SDS011;26146;51.114;5.654;2023-05-19T12:43:21;9.15;;;2.00;;
40433;SDS011;26146;51.114;5.654;2023-05-19T12:47:28;9.98;;;1.80;;
40433;SDS011;26146;51.114;5.654;2023-05-19T12:51:34;9.70;;;2.20;;
40433;SDS011;26146;51.114;5.654;2023-05-19T12:55:40;7.13;;;2.05;;
40433;SDS011;26146;51.114;5.654;2023-05-19T12:59:44;9.02;;;2.20;;
40433;SDS011;26146;51.114;5.654;2023-05-19T13:03:46;9.20;;;2.20;;
40433;SDS011;26146;51.114;5.654;2023-05-19T13:08:00;11.40;;;2.63;;
40433;SDS011;26146;51.114;5.654;2023-05-19T13:12:05;9.07;;;2.00;;
40433;SDS011;26146;51.114;5.654;2023-05-19T13:16:06;10.35;;;2.10;;
40433;SDS011;26146;51.114;5.654;2023-05-19T13:20:07;9.15;;;2.10;;
40433;SDS011;26146;51.114;5.654;2023-05-19T13:24:09;9.65;;;2.20;;
40433;SDS011;26146;51.114;5.654;2023-05-19T13:28:13;7.20;;;2.40;;
40433;SDS011;26146;51.114;5.654;2023-05-19T13:32:14;8.03;;;2.23;;
40433;SDS011;26146;51.114;5.654;2023-05-19T13:36:15;8.82;;;1.90;;
40433;SDS011;26146;51.114;5.654;2023-05-19T13:40:16;9.15;;;1.90;;
40433;SDS011;26146;51.114;5.654;2023-05-19T13:44:18;8.75;;;2.25;;
40433;SDS011;26146;51.114;5.654;2023-05-19T13:48:19;8.05;;;2.10;;
40433;SDS011;26146;51.114;5.654;2023-05-19T13:52:20;8.85;;;2.13;;
40433;SDS011;26146;51.114;5.654;2023-05-19T13:56:21;10.95;;;2.10;;
40433;SDS011;26146;51.114;5.654;2023-05-19T14:00:22;7.15;;;1.80;;
40433;SDS011;26146;51.114;5.654;2023-05-19T14:04:23;8.77;;;2.10;;
40433;SDS011;26146;51.114;5.654;2023-05-19T14:08:24;8.68;;;2.13;;
40433;SDS011;26146;51.114;5.654;2023-05-19T14:12:26;8.13;;;1.98;;
40433;SDS011;26146;51.114;5.654;2023-05-19T14:16:27;8.23;;;2.13;;
40433;SDS011;26146;51.114;5.654;2023-05-19T14:20:31;10.80;;;2.20;;
40433;SDS011;26146;51.114;5.654;2023-05-19T14:24:32;8.27;;;1.80;;
40433;SDS011;26146;51.114;5.654;2023-05-19T14:28:34;9.00;;;2.17;;
40433;SDS011;26146;51.114;5.654;2023-05-19T14:32:35;8.23;;;2.00;;
40433;SDS011;26146;51.114;5.654;2023-05-19T14:36:36;6.88;;;1.92;;
40433;SDS011;26146;51.114;5.654;2023-05-19T14:40:37;8.02;;;1.92;;
40433;SDS011;26146;51.114;5.654;2023-05-19T14:44:40;10.43;;;2.22;;
40433;SDS011;26146;51.114;5.654;2023-05-19T14:48:41;8.23;;;1.90;;
40433;SDS011;26146;51.114;5.654;2023-05-19T14:52:42;7.78;;;1.77;;
40433;SDS011;26146;51.114;5.654;2023-05-19T14:56:43;8.13;;;2.10;;
40433;SDS011;26146;51.114;5.654;2023-05-19T15:00:46;7.20;;;1.90;;
40433;SDS011;26146;51.114;5.654;2023-05-19T15:04:47;8.60;;;2.03;;
40433;SDS011;26146;51.114;5.654;2023-05-19T15:08:48;7.75;;;2.10;;
40433;SDS011;26146;51.114;5.654;2023-05-19T15:12:49;10.20;;;2.13;;
40433;SDS011;26146;51.114;5.654;2023-05-19T15:16:50;9.23;;;2.00;;
40433;SDS011;26146;51.114;5.654;2023-05-19T15:20:51;8.85;;;1.73;;
40433;SDS011;26146;51.114;5.654;2023-05-19T15:24:52;7.15;;;1.52;;
40433;SDS011;26146;51.114;5.654;2023-05-19T15:28:53;8.50;;;1.85;;
40433;SDS011;26146;51.114;5.654;2023-05-19T15:32:55;6.88;;;1.60;;
40433;SDS011;26146;51.114;5.654;2023-05-19T15:36:56;10.13;;;2.05;;
40433;SDS011;26146;51.114;5.654;2023-05-19T15:40:57;7.22;;;1.80;;
40433;SDS011;26146;51.114;5.654;2023-05-19T15:44:58;7.60;;;1.80;;
40433;SDS011;26146;51.114;5.654;2023-05-19T15:48:59;8.35;;;1.70;;
40433;SDS011;26146;51.114;5.654;2023-05-19T15:53:00;8.90;;;1.73;;
40433;SDS011;26146;51.114;5.654;2023-05-19T15:57:01;8.25;;;1.48;;
40433;SDS011;26146;51.114;5.654;2023-05-19T16:01:02;8.80;;;1.80;;
40433;SDS011;26146;51.114;5.654;2023-05-19T16:05:04;11.10;;;1.50;;
40433;SDS011;26146;51.114;5.654;2023-05-19T16:09:05;7.60;;;1.50;;
40433;SDS011;26146;51.114;5.654;2023-05-19T16:13:07;7.53;;;1.70;;
40433;SDS011;26146;51.114;5.654;2023-05-19T16:17:08;7.70;;;1.58;;
40433;SDS011;26146;51.114;5.654;2023-05-19T16:21:11;7.63;;;1.77;;
40433;SDS011;26146;51.114;5.654;2023-05-19T16:25:12;7.72;;;1.42;;
40433;SDS011;26146;51.114;5.654;2023-05-19T16:29:13;11.82;;;2.08;;
40433;SDS011;26146;51.114;5.654;2023-05-19T16:33:14;7.13;;;1.55;;
40433;SDS011;26146;51.114;5.654;2023-05-19T16:37:15;9.35;;;1.90;;
40433;SDS011;26146;51.114;5.654;2023-05-19T16:41:16;6.78;;;1.58;;
40433;SDS011;26146;51.114;5.654;2023-05-19T16:45:17;9.75;;;1.80;;
40433;SDS011;26146;51.114;5.654;2023-05-19T16:49:19;7.95;;;1.73;;
40433;SDS011;26146;51.114;5.654;2023-05-19T16:53:20;7.95;;;1.60;;
40433;SDS011;26146;51.114;5.654;2023-05-19T16:57:21;7.13;;;1.55;;
40433;SDS011;26146;51.114;5.654;2023-05-19T17:01:22;6.45;;;1.50;;
40433;SDS011;26146;51.114;5.654;2023-05-19T17:05:23;6.80;;;1.60;;
40433;SDS011;26146;51.114;5.654;2023-05-19T17:09:24;6.85;;;1.60;;
40433;SDS011;26146;51.114;5.654;2023-05-19T17:13:25;8.32;;;1.60;;
40433;SDS011;26146;51.114;5.654;2023-05-19T17:17:28;8.25;;;1.58;;
40433;SDS011;26146;51.114;5.654;2023-05-19T17:21:30;6.57;;;1.60;;
40433;SDS011;26146;51.114;5.654;2023-05-19T17:25:31;6.78;;;1.60;;
40433;SDS011;26146;51.114;5.654;2023-05-19T17:29:33;6.78;;;1.50;;
40433;SDS011;26146;51.114;5.654;2023-05-19T17:33:34;6.28;;;1.58;;
40433;SDS011;26146;51.114;5.654;2023-05-19T17:37:35;9.32;;;1.70;;
40433;SDS011;26146;51.114;5.654;2023-05-19T17:41:36;7.20;;;1.77;;
40433;SDS011;26146;51.114;5.654;2023-05-19T17:45:37;8.88;;;1.63;;
40433;SDS011;26146;51.114;5.654;2023-05-19T17:49:38;8.20;;;1.52;;
40433;SDS011;26146;51.114;5.654;2023-05-19T17:53:39;7.80;;;1.60;;
40433;SDS011;26146;51.114;5.654;2023-05-19T17:57:42;7.45;;;1.65;;
40433;SDS011;26146;51.114;5.654;2023-05-19T18:01:45;6.72;;;1.40;;
40433;SDS011;26146;51.114;5.654;2023-05-19T18:05:46;7.25;;;1.52;;
40433;SDS011;26146;51.114;5.654;2023-05-19T18:09:48;9.20;;;1.52;;
40433;SDS011;26146;51.114;5.654;2023-05-19T18:13:51;8.65;;;1.70;;
40433;SDS011;26146;51.114;5.654;2023-05-19T18:17:51;13.10;;;1.90;;
40433;SDS011;26146;51.114;5.654;2023-05-19T18:21:52;8.35;;;1.50;;
40433;SDS011;26146;51.114;5.654;2023-05-19T18:25:53;7.57;;;1.70;;
40433;SDS011;26146;51.114;5.654;2023-05-19T18:29:55;6.15;;;1.40;;
40433;SDS011;26146;51.114;5.654;2023-05-19T18:33:56;8.20;;;1.60;;
40433;SDS011;26146;51.114;5.654;2023-05-19T18:37:57;7.80;;;1.67;;
40433;SDS011;26146;51.114;5.654;2023-05-19T18:41:58;7.80;;;1.65;;
40433;SDS011;26146;51.114;5.654;2023-05-19T18:45:59;7.30;;;1.58;;
40433;SDS011;26146;51.114;5.654;2023-05-19T18:50:00;6.43;;;1.42;;
40433;SDS011;26146;51.114;5.654;2023-05-19T18:54:01;7.10;;;1.60;;
40433;SDS011;26146;51.114;5.654;2023-05-19T18:58:02;8.32;;;1.55;;
40433;SDS011;26146;51.114;5.654;2023-05-19T19:02:03;8.85;;;1.83;;
40433;SDS011;26146;51.114;5.654;2023-05-19T19:06:04;8.13;;;1.80;;
40433;SDS011;26146;51.114;5.654;2023-05-19T19:10:05;9.38;;;1.77;;
40433;SDS011;26146;51.114;5.654;2023-05-19T19:14:07;7.85;;;1.80;;
40433;SDS011;26146;51.114;5.654;2023-05-19T19:18:09;7.60;;;1.67;;
40433;SDS011;26146;51.114;5.654;2023-05-19T19:22:11;6.80;;;1.70;;
40433;SDS011;26146;51.114;5.654;2023-05-19T19:26:12;8.02;;;1.70;;
40433;SDS011;26146;51.114;5.654;2023-05-19T19:30:13;9.02;;;2.00;;
40433;SDS011;26146;51.114;5.654;2023-05-19T19:34:13;8.52;;;1.88;;
40433;SDS011;26146;51.114;5.654;2023-05-19T19:38:15;7.15;;;1.90;;
40433;SDS011;26146;51.114;5.654;2023-05-19T19:42:16;8.77;;;2.03;;
40433;SDS011;26146;51.114;5.654;2023-05-19T19:46:18;7.10;;;1.83;;
40433;SDS011;26146;51.114;5.654;2023-05-19T19:50:19;7.03;;;1.80;;
40433;SDS011;26146;51.114;5.654;2023-05-19T19:54:20;6.72;;;1.80;;
40433;SDS011;26146;51.114;5.654;2023-05-19T19:58:21;8.82;;;1.90;;
40433;SDS011;26146;51.114;5.654;2023-05-19T20:02:22;8.35;;;2.05;;
40433;SDS011;26146;51.114;5.654;2023-05-19T20:06:23;8.98;;;2.00;;
40433;SDS011;26146;51.114;5.654;2023-05-19T20:10:25;8.68;;;1.98;;
40433;SDS011;26146;51.114;5.654;2023-05-19T20:14:26;6.10;;;1.83;;
40433;SDS011;26146;51.114;5.654;2023-05-19T20:18:27;13.02;;;2.50;;
40433;SDS011;26146;51.114;5.654;2023-05-19T20:22:29;7.00;;;2.00;;
40433;SDS011;26146;51.114;5.654;2023-05-19T20:26:30;7.32;;;1.83;;
40433;SDS011;26146;51.114;5.654;2023-05-19T20:30:31;8.02;;;1.70;;
40433;SDS011;26146;51.114;5.654;2023-05-19T20:34:32;7.47;;;1.77;;
40433;SDS011;26146;51.114;5.654;2023-05-19T20:38:33;6.35;;;1.80;;
40433;SDS011;26146;51.114;5.654;2023-05-19T20:42:35;7.68;;;1.80;;
40433;SDS011;26146;51.114;5.654;2023-05-19T20:46:38;8.23;;;1.85;;
40433;SDS011;26146;51.114;5.654;2023-05-19T20:50:39;6.93;;;1.80;;
40433;SDS011;26146;51.114;5.654;2023-05-19T20:54:41;6.82;;;1.88;;
40433;SDS011;26146;51.114;5.654;2023-05-19T20:58:42;7.05;;;2.00;;
40433;SDS011;26146;51.114;5.654;2023-05-19T21:02:43;6.07;;;1.67;;
40433;SDS011;26146;51.114;5.654;2023-05-19T21:06:44;8.15;;;2.20;;
40433;SDS011;26146;51.114;5.654;2023-05-19T21:10:45;6.85;;;1.80;;
40433;SDS011;26146;51.114;5.654;2023-05-19T21:14:46;6.95;;;2.20;;
40433;SDS011;26146;51.114;5.654;2023-05-19T21:18:47;6.88;;;2.10;;
40433;SDS011;26146;51.114;5.654;2023-05-19T21:22:48;9.95;;;2.13;;
40433;SDS011;26146;51.114;5.654;2023-05-19T21:26:50;8.02;;;2.08;;
40433;SDS011;26146;51.114;5.654;2023-05-19T21:30:51;7.82;;;2.20;;
40433;SDS011;26146;51.114;5.654;2023-05-19T21:34:52;5.93;;;1.92;;
40433;SDS011;26146;51.114;5.654;2023-05-19T21:38:53;7.18;;;2.00;;
40433;SDS011;26146;51.114;5.654;2023-05-19T21:42:54;7.70;;;2.00;;
40433;SDS011;26146;51.114;5.654;2023-05-19T21:46:55;6.88;;;1.95;;
40433;SDS011;26146;51.114;5.654;2023-05-19T21:50:57;7.55;;;1.85;;
40433;SDS011;26146;51.114;5.654;2023-05-19T21:54:58;8.13;;;2.20;;
40433;SDS011;26146;51.114;5.654;2023-05-19T21:58:59;7.65;;;2.10;;
40433;SDS011;26146;51.114;5.654;2023-05-19T22:03:00;7.07;;;2.00;;
40433;SDS011;26146;51.114;5.654;2023-05-19T22:07:01;7.85;;;2.08;;
40433;SDS011;26146;51.114;5.654;2023-05-19T22:11:02;8.35;;;2.10;;
40433;SDS011;26146;51.114;5.654;2023-05-19T22:15:03;7.18;;;1.90;;
40433;SDS011;26146;51.114;5.654;2023-05-19T22:19:05;8.35;;;2.00;;
40433;SDS011;26146;51.114;5.654;2023-05-19T22:23:06;6.90;;;1.90;;
40433;SDS011;26146;51.114;5.654;2023-05-19T22:27:08;8.38;;;2.03;;
40433;SDS011;26146;51.114;5.654;2023-05-19T22:31:09;7.38;;;1.90;;
40433;SDS011;26146;51.114;5.654;2023-05-19T22:35:10;6.95;;;1.75;;
40433;SDS011;26146;51.114;5.654;2023-05-19T22:39:11;6.72;;;1.95;;
40433;SDS011;26146;51.114;5.654;2023-05-19T22:43:12;6.70;;;1.80;;
40433;SDS011;26146;51.114;5.654;2023-05-19T22:47:14;6.22;;;1.92;;
40433;SDS011;26146;51.114;5.654;2023-05-19T22:51:15;7.53;;;2.00;;
40433;SDS011;26146;51.114;5.654;2023-05-19T22:55:16;6.47;;;1.77;;
40433;SDS011;26146;51.114;5.654;2023-05-19T22:59:17;6.65;;;1.83;;
40433;SDS011;26146;51.114;5.654;2023-05-19T23:03:18;7.05;;;1.90;;
40433;SDS011;26146;51.114;5.654;2023-05-19T23:07:19;7.82;;;2.00;;
40433;SDS011;26146;51.114;5.654;2023-05-19T23:11:20;5.70;;;1.98;;
40433;SDS011;26146;51.114;5.654;2023-05-19T23:15:21;7.78;;;2.20;;
40433;SDS011;26146;51.114;5.654;2023-05-19T23:19:22;6.95;;;1.98;;
40433;SDS011;26146;51.114;5.654;2023-05-19T23:23:24;6.72;;;1.80;;
40433;SDS011;26146;51.114;5.654;2023-05-19T23:27:25;8.20;;;1.90;;
40433;SDS011;26146;51.114;5.654;2023-05-19T23:31:27;9.48;;;2.22;;
40433;SDS011;26146;51.114;5.654;2023-05-19T23:35:28;7.25;;;2.03;;
40433;SDS011;26146;51.114;5.654;2023-05-19T23:39:29;6.20;;;1.83;;
40433;SDS011;26146;51.114;5.654;2023-05-19T23:43:30;6.72;;;2.50;;
40433;SDS011;26146;51.114;5.654;2023-05-19T23:47:32;6.38;;;1.85;;
40433;SDS011;26146;51.114;5.654;2023-05-19T23:51:33;7.03;;;2.25;;
40433;SDS011;26146;51.114;5.654;2023-05-19T23:55:34;7.00;;;1.80;;
40433;SDS011;26146;51.114;5.654;2023-05-19T23:59:35;6.90;;;2.00;;
